Time;durP1;ratioP1;P1;durP2;ratioP2;P2;SDS_P1;SDS_P2;PMS_P1;PMS_P2;Temp;Humidity;BMP_temperature;BMP_pressure;BME280_temperature;BME280_humidity;BME280_pressure;Samples;Min_cycle;Max_cycle;Signal;HPM_P1;HPM_P2
2021/12/18 00:02:23;;;;;;;13.35;6.13;;;7.50;99.90;;;;;;5031358;28;20414;-69
2021/12/18 00:04:48;;;;;;;19.38;7.18;;;7.50;99.90;;;;;;5031474;28;20053;-69
2021/12/18 00:07:14;;;;;;;12.30;5.32;;;7.30;99.90;;;;;;5030179;28;20080;-70
2021/12/18 00:09:41;;;;;;;16.90;5.30;;;7.50;99.90;;;;;;5030125;28;20125;-69
2021/12/18 00:12:07;;;;;;;17.48;5.03;;;7.30;99.90;;;;;;5030122;28;20057;-69
2021/12/18 00:14:33;;;;;;;9.68;4.18;;;7.50;99.90;;;;;;5031488;28;20049;-69
2021/12/18 00:16:59;;;;;;;7.55;3.75;;;7.50;99.90;;;;;;5030973;28;20487;-69
2021/12/18 00:19:26;;;;;;;7.35;2.70;;;7.50;99.90;;;;;;5030103;28;20513;-69
2021/12/18 00:21:53;;;;;;;4.88;2.78;;;7.70;99.90;;;;;;5032150;28;20503;-69
2021/12/18 00:24:19;;;;;;;16.48;5.97;;;7.50;99.90;;;;;;5017258;28;20045;-69
2021/12/18 00:26:45;;;;;;;8.25;3.00;;;7.40;99.90;;;;;;5033641;28;20049;-69
2021/12/18 00:29:10;;;;;;;9.63;3.55;;;7.40;99.90;;;;;;5033855;28;20045;-69
2021/12/18 00:31:36;;;;;;;8.02;2.42;;;7.30;99.90;;;;;;5034721;28;20103;-69
2021/12/18 00:34:01;;;;;;;14.85;3.28;;;7.30;99.90;;;;;;5056110;23;20140;-70
2021/12/18 00:36:27;;;;;;;11.20;3.30;;;7.30;99.90;;;;;;5032597;28;20507;-67
2021/12/18 00:38:52;;;;;;;6.93;2.70;;;7.20;99.90;;;;;;5033669;28;20046;-67
2021/12/18 00:44:02;;;;;;;7.82;2.78;;;7.10;99.90;;;;;;5034878;28;20499;-67
2021/12/18 00:46:31;;;;;;;3.42;1.45;;;7.40;99.90;;;;;;5035089;28;20041;-67
2021/12/18 00:48:56;;;;;;;3.35;1.50;;;7.00;99.90;;;;;;5038888;28;20068;-67
2021/12/18 00:51:23;;;;;;;4.18;1.75;;;7.10;99.90;;;;;;5036685;28;20555;-69
2021/12/18 00:53:48;;;;;;;6.38;2.58;;;7.10;99.90;;;;;;5021293;28;20033;-70
2021/12/18 00:56:14;;;;;;;3.85;1.98;;;7.20;99.90;;;;;;5038135;28;20045;-67
2021/12/18 00:58:40;;;;;;;6.53;2.42;;;7.10;99.90;;;;;;5039527;28;20042;-67
2021/12/18 01:01:09;;;;;;;6.03;3.15;;;6.90;99.90;;;;;;5033041;28;20037;-67
2021/12/18 01:03:36;;;;;;;10.52;3.70;;;7.10;99.90;;;;;;5032885;28;20041;-67
2021/12/18 01:06:01;;;;;;;7.00;3.40;;;7.10;99.90;;;;;;5032868;28;20467;-68
2021/12/18 01:08:27;;;;;;;6.35;2.83;;;7.10;99.90;;;;;;5032854;28;20132;-67
2021/12/18 01:13:29;;;;;;;9.55;4.72;;;7.00;99.90;;;;;;5033421;28;20049;-68
2021/12/18 01:16:03;;;;;;;7.30;4.10;;;7.10;99.90;;;;;;5032946;28;20417;-67
2021/12/18 01:23:56;;;;;;;5.45;3.15;;;7.20;99.90;;;;;;5032379;28;20475;-67
2021/12/18 01:26:23;;;;;;;6.57;4.63;;;7.20;99.90;;;;;;5033561;28;20128;-70
2021/12/18 01:28:48;;;;;;;9.70;3.03;;;7.20;99.90;;;;;;5032842;28;20403;-68
2021/12/18 01:31:14;;;;;;;7.75;1.95;;;7.20;99.90;;;;;;5032364;28;20041;-67
2021/12/18 01:33:40;;;;;;;6.90;2.33;;;7.10;99.90;;;;;;5030977;28;20041;-67
2021/12/18 01:36:05;;;;;;;5.53;2.60;;;7.10;99.90;;;;;;5032273;28;20033;-67
2021/12/18 01:38:31;;;;;;;11.90;3.30;;;7.30;99.90;;;;;;5032173;28;20075;-67
2021/12/18 01:40:59;;;;;;;12.30;4.50;;;7.10;99.90;;;;;;5032064;28;20510;-68
2021/12/18 01:54:12;;;;;;;5.35;2.47;;;7.20;99.90;;;;;;5031768;28;20125;-67
2021/12/18 01:56:38;;;;;;;8.05;2.60;;;6.80;99.90;;;;;;5031482;28;20509;-67
2021/12/18 01:59:04;;;;;;;6.25;2.50;;;7.00;99.90;;;;;;5032128;28;20038;-68
2021/12/18 02:01:29;;;;;;;19.48;3.53;;;7.00;99.90;;;;;;5032161;28;20076;-67
2021/12/18 02:03:55;;;;;;;13.98;4.60;;;7.00;99.90;;;;;;5032024;28;20080;-67
2021/12/18 02:06:22;;;;;;;21.70;3.92;;;7.10;99.90;;;;;;5031479;28;20124;-67
2021/12/18 02:08:48;;;;;;;13.85;3.55;;;6.90;99.90;;;;;;5033172;28;20041;-67
2021/12/18 02:14:19;;;;;;;16.55;5.05;;;6.90;99.90;;;;;;5011746;28;20117;-69
2021/12/18 02:19:50;;;;;;;6.50;3.08;;;6.90;99.90;;;;;;5011958;28;20049;-67
2021/12/18 02:22:20;;;;;;;8.52;2.70;;;6.90;99.90;;;;;;5011570;28;20500;-67
2021/12/18 02:24:46;;;;;;;6.90;2.70;;;6.80;99.90;;;;;;5012871;28;20129;-68
2021/12/18 02:27:11;;;;;;;14.27;3.80;;;6.90;99.90;;;;;;5011239;28;20100;-69
2021/12/18 02:29:39;;;;;;;16.48;3.35;;;6.80;99.90;;;;;;5011852;28;20042;-67
2021/12/18 02:32:06;;;;;;;28.35;3.25;;;6.80;99.90;;;;;;5011435;28;20042;-67
2021/12/18 02:34:34;;;;;;;14.07;3.28;;;6.90;99.90;;;;;;5011328;28;20096;-69
2021/12/18 02:37:05;;;;;;;12.48;4.20;;;6.90;99.90;;;;;;5010815;28;20049;-67
2021/12/18 02:42:20;;;;;;;13.43;3.83;;;6.90;99.90;;;;;;4981119;28;20077;-66
2021/12/18 02:44:46;;;;;;;9.73;3.03;;;6.80;99.90;;;;;;5012161;28;20042;-67
2021/12/18 02:47:12;;;;;;;17.23;3.25;;;6.90;99.90;;;;;;5010915;28;20554;-67
2021/12/18 02:49:47;;;;;;;13.68;3.55;;;6.80;99.90;;;;;;5011455;28;20042;-67
2021/12/18 02:52:13;;;;;;;12.15;2.45;;;6.80;99.90;;;;;;5010877;28;20530;-67
2021/12/18 02:54:40;;;;;;;17.00;2.65;;;7.00;99.90;;;;;;5011096;28;20077;-67
2021/12/18 02:57:05;;;;;;;7.78;3.35;;;6.90;99.90;;;;;;5010936;28;20042;-68
2021/12/18 02:59:41;;;;;;;5.95;3.08;;;6.90;99.90;;;;;;5012351;28;20084;-70
2021/12/18 03:02:07;;;;;;;7.68;2.80;;;6.90;99.90;;;;;;4994828;28;20128;-71
2021/12/18 03:04:35;;;;;;;10.57;2.47;;;7.00;99.90;;;;;;4994828;28;20620;-68
2021/12/18 03:07:03;;;;;;;9.02;3.63;;;7.00;99.90;;;;;;5010570;28;20038;-68
2021/12/18 03:23:17;;;;;;;14.57;2.83;;;6.90;99.90;;;;;;5010466;28;20492;-68
2021/12/18 03:25:44;;;;;;;9.05;2.50;;;6.90;99.90;;;;;;4993998;28;20045;-70
2021/12/18 03:28:09;;;;;;;6.22;2.20;;;7.00;99.90;;;;;;5010822;28;20411;-68
2021/12/18 03:30:36;;;;;;;10.82;3.13;;;7.10;99.90;;;;;;5010741;28;20048;-68
2021/12/18 03:33:02;;;;;;;9.20;3.47;;;7.00;99.90;;;;;;5010432;28;20455;-67
2021/12/18 03:35:29;;;;;;;6.55;2.00;;;6.80;99.90;;;;;;5010260;28;20038;-68
2021/12/18 03:37:55;;;;;;;10.52;2.72;;;7.10;99.90;;;;;;5010640;28;20037;-68
2021/12/18 03:40:23;;;;;;;11.57;2.97;;;6.90;99.90;;;;;;5010503;28;20061;-67
2021/12/18 03:42:50;;;;;;;8.80;2.80;;;7.10;99.90;;;;;;5010262;28;20096;-67
2021/12/18 03:45:17;;;;;;;6.00;2.53;;;7.20;99.90;;;;;;5010079;28;20068;-69
2021/12/18 03:47:43;;;;;;;20.08;5.53;;;7.10;99.90;;;;;;5011574;28;20045;-67
2021/12/18 03:50:09;;;;;;;10.15;3.53;;;7.20;99.90;;;;;;5010239;28;20046;-67
2021/12/18 03:52:35;;;;;;;12.18;3.50;;;7.20;99.90;;;;;;5010378;28;20126;-67
2021/12/18 03:55:01;;;;;;;8.88;3.40;;;7.10;99.90;;;;;;5011869;28;20112;-67
2021/12/18 03:57:27;;;;;;;12.60;3.13;;;7.30;99.90;;;;;;4996970;28;20034;-68
2021/12/18 03:59:53;;;;;;;11.82;4.30;;;7.30;99.90;;;;;;5014339;28;20103;-68
2021/12/18 04:02:19;;;;;;;11.07;3.33;;;7.20;99.90;;;;;;5014224;28;20038;-67
2021/12/18 04:04:44;;;;;;;10.75;3.38;;;7.20;99.90;;;;;;5014145;28;20048;-69
2021/12/18 04:07:10;;;;;;;11.32;3.10;;;7.20;99.90;;;;;;5014196;28;20034;-68
2021/12/18 04:09:36;;;;;;;8.93;3.08;;;7.20;99.90;;;;;;5014066;28;20037;-67
2021/12/18 04:12:02;;;;;;;15.88;3.42;;;7.20;99.90;;;;;;5014159;28;20034;-68
2021/12/18 04:14:29;;;;;;;13.95;4.32;;;7.20;99.90;;;;;;5015307;28;20053;-68
2021/12/18 04:16:55;;;;;;;13.65;4.55;;;7.30;99.90;;;;;;5013708;28;20488;-68
2021/12/18 04:19:21;;;;;;;15.43;4.60;;;7.30;99.90;;;;;;5013780;28;20042;-67
2021/12/18 04:21:47;;;;;;;17.35;5.18;;;7.30;99.90;;;;;;5013076;28;20038;-68
2021/12/18 04:24:12;;;;;;;10.48;3.70;;;7.30;99.90;;;;;;5013876;28;20046;-68
2021/12/18 04:26:38;;;;;;;14.55;4.50;;;7.20;99.90;;;;;;5013434;28;20046;-68
2021/12/18 04:29:06;;;;;;;14.27;4.70;;;7.30;99.90;;;;;;5013588;28;20129;-68
2021/12/18 04:31:33;;;;;;;13.25;4.40;;;7.40;99.90;;;;;;5013945;28;20054;-67
2021/12/18 04:33:59;;;;;;;15.73;4.47;;;7.40;99.90;;;;;;5013474;28;20046;-68
2021/12/18 04:36:25;;;;;;;10.18;4.30;;;7.40;99.90;;;;;;5013387;28;20034;-68
2021/12/18 04:38:50;;;;;;;17.73;5.10;;;7.20;99.90;;;;;;4997208;28;20041;-70
2021/12/18 04:41:22;;;;;;;17.27;5.68;;;;;;;;;;5013856;28;20045;-67
2021/12/18 04:43:48;;;;;;;16.63;5.18;;;7.40;99.90;;;;;;5013413;28;20050;-68
2021/12/18 04:46:14;;;;;;;12.73;4.63;;;7.50;99.90;;;;;;5013159;28;20042;-67
2021/12/18 04:48:39;;;;;;;9.43;3.85;;;7.30;99.90;;;;;;5013304;28;20046;-67
2021/12/18 04:51:05;;;;;;;9.13;4.10;;;7.30;99.90;;;;;;5013399;28;20438;-67
2021/12/18 04:53:31;;;;;;;9.98;3.72;;;7.20;99.90;;;;;;5013405;28;20048;-68
2021/12/18 04:55:56;;;;;;;6.70;3.17;;;7.40;99.90;;;;;;5012926;28;20034;-68
2021/12/18 04:58:22;;;;;;;13.32;4.30;;;7.30;99.90;;;;;;5013473;28;20526;-67
2021/12/18 05:00:48;;;;;;;9.30;3.67;;;7.30;99.90;;;;;;5013097;28;20491;-68
2021/12/18 05:03:15;;;;;;;10.45;5.38;;;7.30;99.90;;;;;;4997038;28;20492;-68
2021/12/18 05:05:41;;;;;;;11.23;5.28;;;7.30;99.90;;;;;;5014013;28;20104;-67
2021/12/18 05:08:07;;;;;;;10.90;4.18;;;7.40;99.90;;;;;;5012951;28;20042;-68
2021/12/18 05:10:33;;;;;;;10.13;4.20;;;7.40;99.90;;;;;;5012870;28;20555;-68
2021/12/18 05:12:59;;;;;;;6.78;3.08;;;7.30;99.90;;;;;;5012785;28;20488;-68
2021/12/18 05:15:25;;;;;;;9.57;3.85;;;7.40;99.90;;;;;;5012788;28;20038;-67
2021/12/18 05:17:51;;;;;;;7.00;2.70;;;7.20;99.90;;;;;;5012723;28;20499;-67
2021/12/18 05:20:17;;;;;;;8.32;3.60;;;7.40;99.90;;;;;;5012999;28;20042;-67
2021/12/18 05:22:42;;;;;;;14.70;3.92;;;7.30;99.90;;;;;;5012645;28;20502;-68
2021/12/18 05:25:08;;;;;;;9.50;3.88;;;7.30;99.90;;;;;;5013835;28;20100;-68
2021/12/18 05:27:36;;;;;;;9.50;4.60;;;7.20;99.90;;;;;;5012447;28;20041;-68
2021/12/18 05:30:03;;;;;;;11.75;4.80;;;7.40;99.90;;;;;;5012619;28;20057;-69
2021/12/18 05:32:31;;;;;;;14.18;5.35;;;7.50;99.90;;;;;;5007552;28;20058;-68
2021/12/18 05:34:56;;;;;;;13.57;6.10;;;7.50;99.90;;;;;;5012826;28;20670;-67
2021/12/18 05:39:50;;;;;;;15.15;5.97;;;7.50;99.90;;;;;;5012697;28;20408;-68
2021/12/18 05:42:17;;;;;;;16.98;7.13;;;7.40;99.90;;;;;;5012333;28;20038;-67
2021/12/18 05:44:43;;;;;;;11.68;5.32;;;7.60;99.90;;;;;;5012395;28;20048;-67
2021/12/18 05:47:08;;;;;;;11.82;5.30;;;7.60;99.90;;;;;;5013435;28;20037;-67
2021/12/18 05:49:34;;;;;;;15.43;6.15;;;7.50;99.90;;;;;;5012281;28;20045;-70
2021/12/18 05:52:00;;;;;;;15.32;5.65;;;7.40;99.90;;;;;;5012083;28;20060;-67
2021/12/18 05:54:25;;;;;;;14.02;5.90;;;7.40;99.90;;;;;;5012114;28;20053;-67
2021/12/18 05:56:51;;;;;;;16.58;6.78;;;7.50;99.90;;;;;;5011829;28;20479;-67
2021/12/18 05:59:16;;;;;;;22.80;7.63;;;7.60;99.90;;;;;;5013388;28;20037;-66
2021/12/18 06:01:42;;;;;;;16.40;6.40;;;7.60;99.90;;;;;;5011974;28;20701;-67
2021/12/18 06:04:08;;;;;;;15.70;5.95;;;7.40;99.90;;;;;;5012303;28;20041;-67
2021/12/18 06:06:34;;;;;;;13.45;6.18;;;7.40;99.90;;;;;;5012277;28;20428;-67
2021/12/18 06:08:59;;;;;;;16.50;5.85;;;7.50;99.90;;;;;;5012229;28;20164;-68
2021/12/18 06:11:27;;;;;;;21.02;7.22;;;7.50;99.90;;;;;;5011752;28;20042;-67
2021/12/18 06:13:53;;;;;;;14.88;5.95;;;7.60;99.90;;;;;;5013000;28;20111;-67
2021/12/18 06:16:21;;;;;;;18.92;6.43;;;7.50;99.90;;;;;;5011613;28;20408;-67
2021/12/18 06:18:50;;;;;;;21.88;7.15;;;7.60;99.90;;;;;;4994721;28;20043;-67
2021/12/18 06:21:17;;;;;;;14.75;5.47;;;7.60;99.90;;;;;;5011636;28;20559;-68
2021/12/18 06:23:45;;;;;;;15.25;6.10;;;7.40;99.90;;;;;;5011460;28;20033;-67
2021/12/18 06:26:11;;;;;;;18.58;6.18;;;7.50;99.90;;;;;;5012527;28;20041;-67
2021/12/18 06:28:37;;;;;;;17.92;6.10;;;7.40;99.90;;;;;;5011499;28;20116;-67
2021/12/18 06:31:02;;;;;;;17.48;5.45;;;7.50;99.90;;;;;;5011410;28;20115;-68
2021/12/18 06:33:29;;;;;;;17.23;6.50;;;7.60;99.90;;;;;;5042332;23;20630;-69
2021/12/18 06:35:55;;;;;;;24.00;6.80;;;7.50;99.90;;;;;;5031046;28;20403;-69
2021/12/18 06:38:21;;;;;;;14.23;5.35;;;7.50;99.90;;;;;;5015018;28;20119;-69
2021/12/18 06:40:47;;;;;;;16.20;5.47;;;7.60;99.90;;;;;;5014977;28;20551;-69
2021/12/18 06:43:13;;;;;;;17.10;6.32;;;7.60;99.90;;;;;;5031287;28;20385;-69
2021/12/18 06:45:38;;;;;;;23.35;6.45;;;7.60;99.90;;;;;;5014580;28;20091;-69
2021/12/18 06:48:04;;;;;;;16.80;6.28;;;7.60;99.90;;;;;;5031584;28;20076;-69
2021/12/18 06:50:30;;;;;;;18.00;5.47;;;7.70;99.90;;;;;;5031455;28;20037;-69
2021/12/18 06:52:56;;;;;;;19.67;7.75;;;7.60;99.90;;;;;;5031298;28;20042;-69
2021/12/18 06:55:23;;;;;;;18.40;6.40;;;7.50;99.90;;;;;;5030910;28;20048;-69
2021/12/18 06:57:48;;;;;;;19.77;6.15;;;7.60;99.90;;;;;;5031310;28;20473;-69
2021/12/18 07:00:15;;;;;;;15.15;5.82;;;7.40;99.90;;;;;;5031114;28;20121;-69
2021/12/18 07:02:41;;;;;;;19.58;7.22;;;7.70;99.90;;;;;;5031137;28;20052;-69
2021/12/18 07:05:08;;;;;;;14.48;5.82;;;7.60;99.90;;;;;;5030974;28;20148;-69
2021/12/18 07:07:35;;;;;;;17.23;6.05;;;7.70;99.90;;;;;;5030922;28;20403;-69
2021/12/18 07:10:00;;;;;;;17.58;6.20;;;7.60;99.90;;;;;;5030847;28;20044;-69
2021/12/18 07:12:26;;;;;;;17.88;6.45;;;7.60;99.90;;;;;;5030815;28;20045;-69
2021/12/18 07:14:52;;;;;;;18.33;7.00;;;7.50;99.90;;;;;;5031057;28;20518;-69
2021/12/18 07:17:18;;;;;;;22.83;7.63;;;7.80;99.90;;;;;;5030460;28;20514;-69
2021/12/18 07:19:43;;;;;;;18.05;6.93;;;7.60;99.90;;;;;;5031053;28;20037;-70
2021/12/18 07:22:09;;;;;;;13.82;5.35;;;7.60;99.90;;;;;;5030982;28;20512;-69
2021/12/18 07:24:34;;;;;;;15.90;6.00;;;7.60;99.90;;;;;;5030881;28;20128;-69
2021/12/18 07:27:00;;;;;;;20.23;6.35;;;7.50;99.90;;;;;;5030551;28;20560;-70
2021/12/18 07:29:25;;;;;;;27.33;6.90;;;7.60;99.90;;;;;;5030576;28;20072;-69
2021/12/18 07:31:51;;;;;;;20.60;6.07;;;7.80;99.90;;;;;;5029725;28;20045;-69
2021/12/18 07:34:18;;;;;;;25.05;7.28;;;7.80;99.90;;;;;;5030535;28;20029;-69
2021/12/18 07:36:44;;;;;;;19.15;5.90;;;7.80;99.90;;;;;;5030585;28;20050;-69
2021/12/18 07:39:11;;;;;;;23.95;6.10;;;7.70;99.90;;;;;;5030447;28;20083;-69
2021/12/18 07:41:37;;;;;;;20.40;6.22;;;7.80;99.90;;;;;;5030506;28;20098;-69
2021/12/18 07:44:06;;;;;;;17.40;5.72;;;7.70;99.90;;;;;;5030265;28;20553;-69
2021/12/18 07:46:32;;;;;;;21.75;7.45;;;7.80;99.90;;;;;;5030165;28;20051;-69
2021/12/18 07:48:58;;;;;;;23.48;7.03;;;7.50;99.90;;;;;;5030289;28;20053;-69
2021/12/18 07:51:24;;;;;;;17.52;6.45;;;7.80;99.90;;;;;;5030461;28;20037;-69
2021/12/18 07:53:50;;;;;;;19.67;6.25;;;;;;;;;;5031308;28;20042;-70
2021/12/18 07:56:15;;;;;;;19.92;6.60;;;7.80;99.90;;;;;;5029984;28;20076;-69
2021/12/18 07:58:41;;;;;;;21.83;6.35;;;7.80;99.90;;;;;;5030363;28;20049;-69
2021/12/18 08:01:06;;;;;;;18.50;6.32;;;7.70;99.90;;;;;;5031899;28;20049;-70
2021/12/18 08:03:32;;;;;;;18.80;6.40;;;7.80;99.90;;;;;;5030427;28;20488;-69
2021/12/18 08:05:58;;;;;;;20.73;6.53;;;7.80;99.90;;;;;;5029938;28;20175;-69
2021/12/18 08:08:23;;;;;;;20.42;6.57;;;7.80;99.90;;;;;;5030342;28;20080;-69
2021/12/18 08:10:49;;;;;;;17.02;5.93;;;7.90;99.90;;;;;;5030072;28;20049;-69
2021/12/18 08:13:14;;;;;;;18.42;7.50;;;7.90;99.90;;;;;;5029979;28;20073;-69
2021/12/18 08:15:40;;;;;;;23.73;6.97;;;7.90;99.90;;;;;;5029967;28;20045;-70
2021/12/18 08:18:07;;;;;;;19.90;9.05;;;;;;;;;;5030406;28;20120;-69
2021/12/18 08:20:37;;;;;;;24.00;10.48;;;7.90;99.90;;;;;;5030096;28;20048;-69
2021/12/18 08:23:03;;;;;;;19.38;8.30;;;8.10;99.90;;;;;;5029951;28;20121;-69
2021/12/18 08:25:30;;;;;;;12.38;5.53;;;8.10;99.90;;;;;;5030013;28;20124;-69
2021/12/18 08:27:58;;;;;;;17.48;6.05;;;8.00;99.90;;;;;;5030045;28;20042;-69
2021/12/18 08:30:24;;;;;;;19.23;8.38;;;8.10;99.90;;;;;;5030294;28;20395;-69
2021/12/18 08:32:49;;;;;;;23.08;11.73;;;8.20;99.90;;;;;;5029791;28;20037;-69
2021/12/18 08:35:15;;;;;;;19.25;8.43;;;8.20;99.90;;;;;;5029858;28;20056;-69
2021/12/18 08:37:41;;;;;;;16.95;8.05;;;8.10;99.90;;;;;;5029531;28;20038;-69
2021/12/18 08:40:07;;;;;;;21.95;8.68;;;8.10;99.90;;;;;;5030192;28;20033;-69
2021/12/18 08:42:33;;;;;;;21.02;10.05;;;8.30;99.90;;;;;;5029964;28;20037;-69
2021/12/18 08:44:59;;;;;;;23.05;9.48;;;8.20;99.90;;;;;;5032483;28;20525;-69
2021/12/18 08:47:25;;;;;;;26.17;9.85;;;8.30;99.90;;;;;;5032142;28;20040;-69
2021/12/18 08:49:51;;;;;;;19.75;9.18;;;8.20;99.90;;;;;;5032195;28;20052;-69
2021/12/18 08:52:17;;;;;;;20.63;6.82;;;8.10;99.90;;;;;;5031918;28;20449;-69
2021/12/18 08:54:43;;;;;;;14.02;6.07;;;8.30;99.90;;;;;;5031935;28;20361;-69
2021/12/18 08:57:09;;;;;;;15.40;6.80;;;8.30;99.90;;;;;;5015413;28;20491;-69
2021/12/18 08:59:36;;;;;;;16.15;6.43;;;8.30;99.90;;;;;;5031944;28;20083;-69
2021/12/18 09:02:03;;;;;;;17.17;7.13;;;8.20;99.90;;;;;;5030615;28;20039;-68
2021/12/18 09:04:29;;;;;;;11.30;5.25;;;8.30;99.90;;;;;;5027007;28;20515;-69
2021/12/18 09:06:54;;;;;;;15.48;6.13;;;8.50;99.90;;;;;;5033367;28;20052;-69
2021/12/18 09:09:20;;;;;;;18.40;7.03;;;8.50;99.90;;;;;;5030719;28;20506;-68
2021/12/18 09:11:46;;;;;;;15.07;6.57;;;8.50;99.90;;;;;;5022881;28;20042;-69
2021/12/18 09:14:12;;;;;;;13.52;6.22;;;8.40;99.90;;;;;;5028510;28;20040;-70
2021/12/18 09:16:37;;;;;;;16.08;5.82;;;8.40;99.90;;;;;;5030059;28;20041;-70
2021/12/18 09:19:03;;;;;;;11.30;5.72;;;8.90;99.90;;;;;;5032567;28;20111;-70
2021/12/18 09:21:29;;;;;;;17.27;6.53;;;8.40;99.90;;;;;;5029431;28;20044;-70
2021/12/18 09:23:54;;;;;;;15.07;5.20;;;8.40;99.90;;;;;;5028932;28;20034;-70
2021/12/18 09:26:20;;;;;;;16.52;6.75;;;8.60;99.90;;;;;;5032058;28;20080;-70
2021/12/18 09:28:46;;;;;;;11.05;5.18;;;8.50;99.90;;;;;;5011151;28;20511;-69
2021/12/18 09:31:11;;;;;;;10.52;3.95;;;8.50;99.90;;;;;;5027655;28;20041;-69
2021/12/18 09:33:37;;;;;;;7.65;3.70;;;8.50;99.90;;;;;;5031970;28;20092;-70
2021/12/18 09:36:03;;;;;;;8.90;4.68;;;8.60;99.90;;;;;;5030887;28;20079;-69
2021/12/18 09:38:28;;;;;;;10.07;4.63;;;8.50;99.90;;;;;;5033112;28;20125;-69
2021/12/18 09:40:58;;;;;;;10.27;4.53;;;8.40;99.90;;;;;;5032177;28;20120;-69
2021/12/18 09:43:24;;;;;;;10.35;4.22;;;8.50;99.90;;;;;;5031955;28;20037;-70
2021/12/18 09:45:49;;;;;;;7.72;3.47;;;8.50;99.90;;;;;;5031550;28;20037;-69
2021/12/18 09:48:15;;;;;;;9.90;4.10;;;8.40;99.90;;;;;;5033372;28;20033;-69
2021/12/18 09:50:43;;;;;;;9.05;4.18;;;;;;;;;;5035125;28;20041;-78
2021/12/18 09:53:09;;;;;;;9.88;5.35;;;;;;;;;;5023308;28;20046;-79
2021/12/18 09:55:35;;;;;;;10.27;3.50;;;8.50;99.90;;;;;;5032370;28;20716;-78
2021/12/18 09:58:01;;;;;;;8.63;3.60;;;8.50;99.90;;;;;;5016624;28;20038;-79
2021/12/18 10:00:26;;;;;;;9.98;3.33;;;8.40;99.90;;;;;;5031597;28;20563;-79
2021/12/18 10:02:53;;;;;;;8.23;3.47;;;8.40;99.90;;;;;;5033025;28;20411;-80
2021/12/18 10:05:26;;;;;;;13.50;4.07;;;8.40;99.90;;;;;;5006323;28;20037;-79
2021/12/18 10:08:05;;;;;;;6.50;3.20;;;8.40;99.90;;;;;;5013401;28;20124;-79
2021/12/18 10:10:30;;;;;;;11.18;3.80;;;8.30;99.90;;;;;;5013342;28;20042;-79
2021/12/18 10:13:09;;;;;;;7.47;3.15;;;8.50;99.90;;;;;;5013369;28;20042;-79
2021/12/18 10:15:36;;;;;;;10.63;3.40;;;8.50;99.90;;;;;;5013026;28;20512;-79
2021/12/18 10:18:08;;;;;;;5.78;2.88;;;8.40;99.90;;;;;;5012870;28;20037;-78
2021/12/18 10:20:34;;;;;;;6.40;2.80;;;8.30;99.90;;;;;;5036716;28;20045;-79
2021/12/18 11:00:34;;;;;;;13.57;6.25;;;8.60;99.90;;;;;;5140954;27;20433;-68
2021/12/18 11:03:32;;;;;;;12.02;4.93;;;8.60;99.90;;;;;;5085356;28;20052;-68
2021/12/18 11:06:20;;;;;;;23.20;8.73;;;8.60;99.90;;;;;;5061755;28;20506;-68
2021/12/18 11:08:55;;;;;;;18.98;6.15;;;;;;;;;;5087121;28;20039;-68
2021/12/18 11:14:17;;;;;;;16.88;6.60;;;8.70;99.90;;;;;;5064025;28;20067;-73
2021/12/18 11:16:47;;;;;;;24.48;7.43;;;8.60;99.90;;;;;;5064100;28;20041;-74
2021/12/18 11:19:16;;;;;;;13.75;5.70;;;8.90;99.90;;;;;;5041966;28;20120;-71
2021/12/18 11:21:43;;;;;;;17.02;6.32;;;;;;;;;;5066278;28;20434;-71
2021/12/18 11:24:10;;;;;;;11.50;5.32;;;8.80;99.90;;;;;;5075203;28;20116;-71
2021/12/18 11:26:45;;;;;;;11.68;6.07;;;8.90;99.90;;;;;;5076509;28;20044;-72
2021/12/18 11:29:13;;;;;;;20.83;7.72;;;;;;;;;;5093313;28;20040;-72
2021/12/18 11:31:41;;;;;;;16.73;6.25;;;9.00;99.90;;;;;;5075627;28;20043;-72
2021/12/18 11:34:07;;;;;;;13.93;5.47;;;;;;;;;;5077643;28;20035;-72
2021/12/18 11:36:33;;;;;;;10.43;4.40;;;8.90;99.90;;;;;;5055814;28;20041;-73
2021/12/18 11:39:00;;;;;;;18.63;5.40;;;8.80;99.90;;;;;;5066553;28;20041;-73
2021/12/18 11:41:26;;;;;;;10.95;4.95;;;;;;;;;;5066913;28;20503;-72
2021/12/18 11:43:52;;;;;;;16.80;6.78;;;;;;;;;;5066740;28;20074;-72
2021/12/18 11:46:41;;;;;;;19.25;7.38;;;9.20;99.90;;;;;;5066868;28;20090;-72
2021/12/18 11:49:08;;;;;;;17.85;7.15;;;8.90;99.90;;;;;;5066206;28;20041;-71
2021/12/18 11:51:35;;;;;;;15.45;7.05;;;9.00;99.90;;;;;;5054326;28;20032;-73
2021/12/18 11:54:03;;;;;;;16.88;5.65;;;9.00;99.90;;;;;;5069739;28;20033;-72
2021/12/18 11:56:44;;;;;;;16.35;6.03;;;;;;;;;;5066427;28;20037;-72
2021/12/18 11:59:10;;;;;;;13.32;4.20;;;;;;;;;;5065200;28;20047;-71
2021/12/18 12:01:44;;;;;;;12.85;2.97;;;9.00;99.90;;;;;;5052705;28;20044;-72
2021/12/18 12:04:09;;;;;;;8.75;2.72;;;9.10;99.90;;;;;;5053476;28;20036;-71
2021/12/18 12:06:38;;;;;;;9.98;2.40;;;9.00;99.90;;;;;;5051802;28;20056;-71
2021/12/18 12:09:34;;;;;;;6.97;2.42;;;9.20;99.90;;;;;;5075367;28;20111;-72
2021/12/18 12:12:02;;;;;;;9.32;2.63;;;;;;;;;;5045159;28;20487;-72
2021/12/18 12:14:29;;;;;;;8.73;2.45;;;9.10;99.90;;;;;;5073165;28;20040;-72
2021/12/18 12:17:17;;;;;;;9.43;2.60;;;9.00;99.90;;;;;;5054527;28;20045;-72
2021/12/18 12:19:48;;;;;;;17.30;4.20;;;;;;;;;;5052515;28;20530;-71
2021/12/18 12:22:34;;;;;;;10.77;2.92;;;9.10;99.90;;;;;;5056485;28;20094;-71
2021/12/18 12:25:01;;;;;;;9.45;2.97;;;9.10;99.90;;;;;;5061192;28;20119;-71
2021/12/18 12:27:31;;;;;;;11.63;2.80;;;9.10;99.90;;;;;;5066728;28;20045;-71
2021/12/18 12:29:59;;;;;;;13.85;3.25;;;9.10;99.90;;;;;;5053063;28;20415;-72
2021/12/18 12:32:27;;;;;;;11.23;3.00;;;9.20;99.90;;;;;;5060036;28;20036;-72
2021/12/18 12:35:04;;;;;;;10.48;3.15;;;9.10;99.90;;;;;;5072324;28;20041;-72
2021/12/18 12:37:33;;;;;;;6.60;3.45;;;9.10;99.90;;;;;;5054440;28;20032;-72
2021/12/18 12:40:06;;;;;;;15.43;3.38;;;9.20;99.90;;;;;;5071019;28;20117;-72
2021/12/18 12:42:32;;;;;;;10.05;3.10;;;9.20;99.90;;;;;;5072291;28;20037;-72
2021/12/18 12:45:06;;;;;;;11.70;3.55;;;9.00;99.90;;;;;;5072047;28;20116;-72
2021/12/18 12:47:32;;;;;;;8.38;3.65;;;9.20;99.90;;;;;;5071079;28;20086;-72
2021/12/18 12:50:00;;;;;;;7.30;2.78;;;9.20;99.90;;;;;;5055327;28;20040;-73
2021/12/18 12:52:29;;;;;;;11.70;3.65;;;;;;;;;;5073621;28;20041;-72
2021/12/18 12:55:06;;;;;;;9.68;2.40;;;9.10;99.90;;;;;;5072444;28;20445;-72
2021/12/18 12:57:34;;;;;;;8.25;2.50;;;8.90;99.90;;;;;;5055471;28;20036;-72
2021/12/18 13:00:06;;;;;;;7.82;2.83;;;9.10;99.90;;;;;;5072033;28;20047;-72
2021/12/18 13:02:35;;;;;;;8.82;3.00;;;9.00;99.90;;;;;;5071969;28;20123;-73
2021/12/18 13:05:06;;;;;;;7.82;4.65;;;9.20;99.90;;;;;;5071984;28;20516;-72
2021/12/18 13:07:33;;;;;;;11.65;4.50;;;9.20;99.90;;;;;;5072195;28;20041;-72
2021/12/18 13:09:58;;;;;;;13.48;5.43;;;9.00;99.90;;;;;;5071651;28;20127;-73
2021/12/18 13:12:24;;;;;;;16.92;5.10;;;9.00;99.90;;;;;;5070674;28;20119;-72
2021/12/18 13:14:50;;;;;;;12.23;4.57;;;;;;;;;;5071724;28;20040;-72
2021/12/18 13:17:20;;;;;;;8.95;3.50;;;;;;;;;;5071736;28;20090;-72
2021/12/18 13:19:56;;;;;;;16.15;5.10;;;;;;;;;;5071663;28;20075;-72
2021/12/18 13:22:25;;;;;;;10.57;3.50;;;;;;;;;;5071576;28;20047;-72
2021/12/18 13:25:03;;;;;;;8.07;3.20;;;8.90;99.90;;;;;;5071512;28;20090;-72
2021/12/18 13:27:29;;;;;;;10.20;3.10;;;;;;;;;;5071489;28;20044;-72
2021/12/18 13:30:14;;;;;;;10.55;3.22;;;8.90;99.90;;;;;;5071059;28;20106;-73
2021/12/18 13:33:02;;;;;;;8.57;3.60;;;9.10;99.90;;;;;;5071611;28;20447;-72
2021/12/18 13:35:29;;;;;;;15.15;7.82;;;9.10;99.90;;;;;;5054613;28;20040;-72
2021/12/18 13:38:01;;;;;;;14.85;6.85;;;9.20;99.90;;;;;;5071781;28;20510;-71
2021/12/18 13:40:29;;;;;;;12.05;6.45;;;9.00;99.90;;;;;;5070914;28;20479;-72
2021/12/18 13:43:09;;;;;;;14.63;7.20;;;;;;;;;;5071098;28;20132;-72
2021/12/18 13:46:02;;;;;;;10.00;5.28;;;8.90;99.90;;;;;;5071200;28;20075;-72
2021/12/18 13:48:37;;;;;;;9.68;4.65;;;8.80;99.90;;;;;;5070993;28;20392;-72
2021/12/18 13:51:08;;;;;;;12.73;4.90;;;8.80;99.90;;;;;;5070834;28;20064;-72
2021/12/18 13:53:47;;;;;;;19.42;6.00;;;8.90;99.90;;;;;;5070828;28;20040;-72
2021/12/18 13:56:13;;;;;;;12.15;6.50;;;8.90;99.90;;;;;;5071213;28;20109;-73
2021/12/18 13:58:39;;;;;;;10.60;5.90;;;8.80;99.90;;;;;;5071092;28;20495;-72
2021/12/18 14:01:10;;;;;;;9.85;4.47;;;9.00;99.90;;;;;;5070540;28;20033;-73
2021/12/18 14:03:48;;;;;;;7.95;3.45;;;8.70;99.90;;;;;;5070845;28;20127;-72
2021/12/18 14:06:33;;;;;;;10.63;3.40;;;8.80;99.90;;;;;;5070810;28;20498;-72
2021/12/18 14:09:03;;;;;;;9.90;4.35;;;8.70;99.90;;;;;;5070511;28;20060;-72
2021/12/18 14:11:37;;;;;;;8.02;4.07;;;8.70;99.90;;;;;;5070777;28;20041;-72
2021/12/18 14:14:11;;;;;;;8.98;4.50;;;8.90;99.90;;;;;;5070883;28;20041;-72
2021/12/18 14:16:47;;;;;;;13.45;5.35;;;8.80;99.90;;;;;;5070706;28;20048;-72
2021/12/18 14:19:12;;;;;;;12.48;5.63;;;8.80;99.90;;;;;;5070451;28;20093;-71
2021/12/18 14:21:42;;;;;;;10.63;5.00;;;8.70;99.90;;;;;;5053817;28;20036;-72
2021/12/18 14:24:11;;;;;;;10.82;4.57;;;8.90;99.90;;;;;;5070509;28;20082;-72
2021/12/18 14:26:37;;;;;;;12.80;5.75;;;8.90;99.90;;;;;;5070513;28;20055;-72